Le Laurabrenn — FU4171 — position and weather

sailwx.info

Track history (hours):
 
Tides and Currents Weather Stations Pressure Air Temp Water Temp Dewpoint Dewpoint Depression Visibility Wind Speed Wind Dir Waves Ship Positions

Le Laurabrenn

Last reported at 2018-Feb-18 03:48 UTC. Time now 2018-Feb-19 18:16 UTC.
Position N 47°50' W 004°10'.

Length 12 m.

Type: Fishing. MMSI: 228941000.

Date/timePositionNaut miles runAvg speedWind from/ knotsBaromVisibWave heightAir tempDewpointWater temp
2018-Feb-18 03:48N 47°50' W 004°10'25 0.5
2018-Feb-16 06:30N 47°35' W 003°42'3 4.8
2018-Feb-16 05:51N 47°37' W 003°44'15 4.7
2018-Feb-16 02:38N 47°50' W 003°56'1 1.3
2018-Feb-16 01:38N 47°52' W 003°56'3 5.0
2018-Feb-16 00:58N 47°48' W 003°54'9 5.0
2018-Feb-15 23:11N 47°41' W 003°47'0 0.3
2018-Feb-15 23:00N 47°41' W 003°47'17 2.1
2018-Feb-15 14:30N 47°24' W 003°39'1 2.0
2018-Feb-15 14:00N 47°24' W 003°40'  
Track history (hours):
 
Tides and Currents Weather Stations Pressure Air Temp Water Temp Dewpoint Dewpoint Depression Visibility Wind Speed Wind Dir Waves Ship Positions

Le Laurabrenn

Last reported at 2018-Feb-18 03:48 UTC. Time now 2018-Feb-19 18:16 UTC.
Position N 47°50' W 004°10'.

Length 12 m.

Type: Fishing. MMSI: 228941000.

Date/timePositionNaut miles runAvg speedWind from/ knotsBaromVisibWave heightAir tempDewpointWater temp
2018-Feb-18 03:48N 47°50' W 004°10'25 0.5
2018-Feb-16 06:30N 47°35' W 003°42'3 4.8
2018-Feb-16 05:51N 47°37' W 003°44'15 4.7
2018-Feb-16 02:38N 47°50' W 003°56'1 1.3
2018-Feb-16 01:38N 47°52' W 003°56'3 5.0
2018-Feb-16 00:58N 47°48' W 003°54'9 5.0
2018-Feb-15 23:11N 47°41' W 003°47'0 0.3
2018-Feb-15 23:00N 47°41' W 003°47'17 2.1
2018-Feb-15 14:30N 47°24' W 003°39'1 2.0
2018-Feb-15 14:00N 47°24' W 003°40'  

Dump ship's entire track history